Time;durP1;ratioP1;P1;durP2;ratioP2;P2;SDS_P1;SDS_P2;PMS_P1;PMS_P2;Temp;Humidity;BMP_temperature;BMP_pressure;BME280_temperature;BME280_humidity;BME280_pressure;Samples;Min_cycle;Max_cycle;Signal;HPM_P1;HPM_P2
2022/08/16 00:01:19;;;;;;;9.27;6.22;;;;;;;;;;5111390;27;20788;-71
2022/08/16 00:03:45;;;;;;;9.57;6.22;;;;;;;;;;5110969;28;20020;-71
2022/08/16 00:06:12;;;;;;;11.20;7.45;;;;;;;;;;5111312;28;20455;-71
2022/08/16 00:11:44;;;;;;;11.40;6.85;;;;;;;;;;5110944;27;20384;-71
2022/08/16 00:15:10;;;;;;;11.27;7.50;;;;;;;;;;5112120;27;20907;-71
2022/08/16 00:19:34;;;;;;;13.15;7.75;;;;;;;;;;5111469;27;20396;-71
2022/08/16 00:22:00;;;;;;;11.30;7.47;;;;;;;;;;5111572;28;20031;-71
2022/08/16 00:28:22;;;;;;;9.93;6.68;;;;;;;;;;5112027;27;21080;-71
2022/08/16 00:32:35;;;;;;;9.95;6.15;;;;;;;;;;5111147;27;20501;-71
2022/08/16 00:35:01;;;;;;;10.02;5.93;;;;;;;;;;5111380;28;20429;-71
2022/08/16 00:39:26;;;;;;;9.73;6.68;;;;;;;;;;5111382;27;20422;-71
2022/08/16 00:41:52;;;;;;;10.10;6.20;;;;;;;;;;5111416;28;20642;-71
2022/08/16 00:45:06;;;;;;;10.73;7.28;;;;;;;;;;5111404;27;20397;-71
2022/08/16 00:50:11;;;;;;;9.88;6.50;;;;;;;;;;5111773;27;20465;-72
2022/08/16 00:52:37;;;;;;;10.57;7.00;;;;;;;;;;5111111;28;20046;-71
2022/08/16 00:55:03;;;;;;;10.15;6.88;;;;;;;;;;5111835;28;20051;-71
2022/08/16 00:57:54;;;;;;;10.80;6.75;;;;;;;;;;5111774;27;20389;-71
2022/08/16 01:02:44;;;;;;;10.43;6.47;;;;;;;;;;5111570;27;20441;-73
2022/08/16 01:05:10;;;;;;;9.77;6.03;;;;;;;;;;5111446;28;20107;-71
2022/08/16 01:07:36;;;;;;;11.77;7.30;;;;;;;;;;5111069;28;20047;-71
2022/08/16 01:10:03;;;;;;;9.15;6.22;;;;;;;;;;5111361;28;20035;-71
2022/08/16 01:12:29;;;;;;;10.23;6.50;;;;;;;;;;5111750;28;20511;-71
2022/08/16 01:14:57;;;;;;;9.90;6.25;;;;;;;;;;5110780;28;20460;-71
2022/08/16 01:17:24;;;;;;;10.15;6.70;;;;;;;;;;5111267;28;20433;-71
2022/08/16 01:19:53;;;;;;;10.05;6.70;;;;;;;;;;5111156;28;20414;-70
2022/08/16 01:23:23;;;;;;;11.50;7.13;;;;;;;;;;5111730;27;20843;-71
2022/08/16 01:25:51;;;;;;;12.02;8.07;;;;;;;;;;5110117;28;20077;-71
2022/08/16 01:29:00;;;;;;;9.98;7.00;;;;;;;;;;5111051;27;20574;-71
2022/08/16 01:31:48;;;;;;;11.05;7.70;;;;;;;;;;5112229;27;20380;-71
2022/08/16 01:34:27;;;;;;;8.82;6.10;;;;;;;;;;5111261;27;20410;-71
2022/08/16 01:36:57;;;;;;;9.65;6.28;;;;;;;;;;5111445;28;20081;-71
2022/08/16 01:44:26;;;;;;;9.68;6.15;;;;;;;;;;5111727;27;20418;-71
2022/08/16 01:46:55;;;;;;;8.40;5.60;;;;;;;;;;5111563;28;20488;-71
2022/08/16 01:52:26;;;;;;;9.45;6.68;;;;;;;;;;5112025;27;20427;-71
2022/08/16 01:54:52;;;;;;;10.60;7.60;;;;;;;;;;5110147;28;20031;-71
2022/08/16 01:57:20;;;;;;;11.32;8.35;;;;;;;;;;5110916;28;20388;-71
2022/08/16 01:59:46;;;;;;;12.07;8.65;;;;;;;;;;5111302;28;20381;-71
2022/08/16 02:04:02;;;;;;;11.75;6.85;;;;;;;;;;5111289;27;20469;-71
2022/08/16 02:07:04;;;;;;;11.57;6.63;;;;;;;;;;5112272;27;20834;-71
2022/08/16 02:15:30;;;;;;;10.25;6.88;;;;;;;;;;5111981;27;20534;-71
2022/08/16 02:17:57;;;;;;;10.73;7.20;;;;;;;;;;5111018;28;20027;-71
2022/08/16 02:20:24;;;;;;;13.73;8.80;;;;;;;;;;5127132;28;20024;-71
2022/08/16 02:22:50;;;;;;;11.90;8.50;;;;;;;;;;5111308;28;20052;-71
2022/08/16 02:25:58;;;;;;;12.55;7.20;;;;;;;;;;5111406;27;20392;-71
2022/08/16 02:29:33;;;;;;;11.80;7.63;;;;;;;;;;5111716;27;20569;-71
2022/08/16 02:32:59;;;;;;;10.65;6.55;;;;;;;;;;5111045;27;20415;-71
2022/08/16 02:35:26;;;;;;;10.35;6.78;;;;;;;;;;5111385;28;20023;-71
2022/08/16 02:37:53;;;;;;;13.95;7.50;;;;;;;;;;5110860;28;20024;-71
2022/08/16 02:40:19;;;;;;;12.82;8.43;;;;;;;;;;5111255;28;20027;-71
2022/08/16 02:42:47;;;;;;;12.25;8.88;;;;;;;;;;5111467;28;20095;-71
2022/08/16 02:47:02;;;;;;;12.95;9.05;;;;;;;;;;5111406;27;20765;-71
2022/08/16 02:49:28;;;;;;;10.98;8.05;;;;;;;;;;5111392;28;20102;-70
2022/08/16 02:55:02;;;;;;;12.85;7.78;;;;;;;;;;5111404;27;20120;-71
2022/08/16 02:57:29;;;;;;;12.85;8.35;;;;;;;;;;5111422;28;20388;-71
2022/08/16 02:59:56;;;;;;;11.18;8.00;;;;;;;;;;5109549;28;20023;-71
2022/08/16 03:09:30;;;;;;;11.90;7.85;;;;;;;;;;5111394;27;20445;-71
2022/08/16 03:18:27;;;;;;;11.88;7.88;;;;;;;;;;5111390;27;20469;-71
2022/08/16 03:21:40;;;;;;;11.73;7.65;;;;;;;;;;5070578;28;20396;-71
2022/08/16 03:24:06;;;;;;;11.32;7.95;;;;;;;;;;5070928;28;20017;-71
2022/08/16 03:32:18;;;;;;;9.93;6.55;;;;;;;;;;5111828;27;20396;-71
2022/08/16 03:34:45;;;;;;;11.70;7.85;;;;;;;;;;5110992;28;20078;-71
2022/08/16 03:37:11;;;;;;;11.95;7.53;;;;;;;;;;5111374;28;20023;-71
2022/08/16 03:41:04;;;;;;;11.20;7.88;;;;;;;;;;5111514;27;20392;-71
2022/08/16 03:43:31;;;;;;;10.95;7.63;;;;;;;;;;5111309;28;20024;-71
2022/08/16 03:45:58;;;;;;;13.75;7.72;;;;;;;;;;5111362;28;20448;-71
2022/08/16 03:48:25;;;;;;;14.95;8.50;;;;;;;;;;5109640;28;20051;-71
2022/08/16 03:50:51;;;;;;;20.25;9.73;;;;;;;;;;5111314;28;20031;-71
2022/08/16 03:53:18;;;;;;;13.85;8.52;;;;;;;;;;5111170;28;20077;-71
2022/08/16 04:02:17;;;;;;;10.23;7.03;;;;;;;;;;5111553;27;20418;-71
2022/08/16 04:04:44;;;;;;;13.05;8.95;;;;;;;;;;5110126;28;20088;-71
2022/08/16 04:08:56;;;;;;;11.75;7.80;;;;;;;;;;5111589;27;20388;-71
2022/08/16 04:12:22;;;;;;;11.68;8.35;;;;;;;;;;5173455;27;20107;-71
2022/08/16 04:16:05;;;;;;;12.68;8.05;;;;;;;;;;5112163;27;20557;-71
2022/08/16 04:18:31;;;;;;;11.23;7.43;;;;;;;;;;5109703;28;20028;-71
2022/08/16 04:20:57;;;;;;;14.23;8.15;;;;;;;;;;5111261;28;20055;-71
2022/08/16 04:24:38;;;;;;;12.82;7.97;;;;;;;;;;5091427;27;20845;-71
2022/08/16 04:27:04;;;;;;;12.07;8.05;;;;;;;;;;5091013;28;20032;-71
2022/08/16 04:29:30;;;;;;;19.92;8.88;;;;;;;;;;5091095;28;20024;-71
2022/08/16 04:34:00;;;;;;;12.75;8.02;;;;;;;;;;5112201;27;20454;-72
2022/08/16 04:36:27;;;;;;;15.90;8.07;;;;;;;;;;5111424;28;20048;-71
2022/08/16 04:40:08;;;;;;;11.95;7.32;;;;;;;;;;5112148;27;20422;-71
2022/08/16 04:43:44;;;;;;;13.00;7.82;;;;;;;;;;5111713;27;20113;-71
2022/08/16 04:47:05;;;;;;;11.57;7.90;;;;;;;;;;5111902;27;20985;-72
2022/08/16 04:49:31;;;;;;;11.00;7.50;;;;;;;;;;5111900;28;20023;-71
2022/08/16 04:52:56;;;;;;;11.80;8.00;;;;;;;;;;5111245;27;20430;-71
2022/08/16 04:55:24;;;;;;;13.23;8.63;;;;;;;;;;5111964;28;20028;-72
2022/08/16 04:57:51;;;;;;;11.20;6.95;;;;;;;;;;5111350;28;20349;-71
2022/08/16 05:00:19;;;;;;;9.75;7.05;;;;;;;;;;5110864;28;20032;-72
2022/08/16 05:02:45;;;;;;;9.82;6.72;;;;;;;;;;5127058;28;20387;-71
2022/08/16 05:05:47;;;;;;;14.35;7.45;;;;;;;;;;5173348;27;20806;-71
2022/08/16 05:08:13;;;;;;;11.95;7.38;;;;;;;;;;5153003;27;20033;-72
2022/08/16 05:10:39;;;;;;;12.07;8.48;;;;;;;;;;5152684;27;20030;-71
2022/08/16 05:14:00;;;;;;;11.15;7.75;;;;;;;;;;5111154;27;20919;-71
2022/08/16 05:16:30;;;;;;;11.70;7.43;;;;;;;;;;5111454;28;20105;-71
2022/08/16 05:19:55;;;;;;;12.10;7.47;;;;;;;;;;5111569;27;20797;-71
2022/08/16 05:22:21;;;;;;;12.77;8.18;;;;;;;;;;5109918;28;20415;-71
2022/08/16 05:24:48;;;;;;;12.98;9.02;;;;;;;;;;5110049;28;20464;-69
2022/08/16 05:27:14;;;;;;;14.32;9.90;;;;;;;;;;5109523;28;20119;-71
2022/08/16 05:29:40;;;;;;;14.38;9.85;;;;;;;;;;5109256;28;20472;-71
2022/08/16 05:32:06;;;;;;;13.18;8.63;;;;;;;;;;5109727;28;20028;-71
2022/08/16 05:34:33;;;;;;;16.65;10.40;;;;;;;;;;5109422;28;20030;-72
2022/08/16 05:37:31;;;;;;;12.15;8.57;;;;;;;;;;5112173;27;20400;-71
2022/08/16 05:39:57;;;;;;;14.32;9.48;;;;;;;;;;5111346;28;20449;-71
2022/08/16 05:43:29;;;;;;;13.88;9.05;;;;;;;;;;5109194;27;20388;-72
2022/08/16 05:45:57;;;;;;;14.45;8.45;;;;;;;;;;5109278;28;20027;-72
2022/08/16 05:49:36;;;;;;;14.88;10.32;;;;;;;;;;5108683;27;20454;-71
2022/08/16 05:52:27;;;;;;;17.25;10.43;;;;;;;;;;5109102;27;20458;-71
2022/08/16 05:54:53;;;;;;;14.23;9.00;;;;;;;;;;5107362;28;20476;-71
2022/08/16 05:57:19;;;;;;;13.65;9.10;;;;;;;;;;5106698;28;20031;-70
2022/08/16 06:02:26;;;;;;;14.65;8.95;;;;;;;;;;5104643;27;20406;-70
2022/08/16 06:05:28;;;;;;;14.05;9.13;;;;;;;;;;5070585;28;20957;-70
2022/08/16 06:07:54;;;;;;;10.48;7.32;;;;;;;;;;5069467;28;20078;-69
2022/08/16 06:10:30;;;;;;;14.68;8.45;;;;;;;;;;5101620;27;20920;-71
2022/08/16 06:14:50;;;;;;;11.25;8.10;;;;;;;;;;5111453;27;20752;-70
2022/08/16 06:21:30;;;;;;;12.25;8.07;;;;;;;;;;5104307;27;20467;-69
2022/08/16 06:24:46;;;;;;;12.73;7.45;;;;;;;;;;5104378;27;20394;-74
2022/08/16 06:27:12;;;;;;;10.63;8.02;;;;;;;;;;5106633;28;20453;-72
2022/08/16 06:29:59;;;;;;;10.70;7.25;;;;;;;;;;5098988;27;20433;-70
2022/08/16 06:32:25;;;;;;;12.25;7.68;;;;;;;;;;5111431;28;20024;-70
2022/08/16 06:34:51;;;;;;;12.32;8.75;;;;;;;;;;5131457;27;20032;-69
2022/08/16 06:37:17;;;;;;;14.52;9.32;;;;;;;;;;5099593;28;20423;-70
2022/08/16 06:39:44;;;;;;;19.23;11.60;;;;;;;;;;5096826;28;20131;-69
2022/08/16 06:43:01;;;;;;;19.05;11.90;;;;;;;;;;5149542;27;20845;-69
2022/08/16 06:45:28;;;;;;;18.70;10.32;;;;;;;;;;5121635;28;20131;-68
2022/08/16 06:47:54;;;;;;;14.30;9.63;;;;;;;;;;5128796;28;20049;-70
2022/08/16 06:50:20;;;;;;;15.50;9.75;;;;;;;;;;5127125;28;20015;-69
2022/08/16 06:52:47;;;;;;;16.83;10.05;;;;;;;;;;5109717;28;20031;-69
2022/08/16 06:55:45;;;;;;;13.38;9.45;;;;;;;;;;5090236;27;20762;-69
2022/08/16 06:58:12;;;;;;;13.65;9.73;;;;;;;;;;5090655;28;20032;-70
2022/08/16 07:00:38;;;;;;;12.80;8.88;;;;;;;;;;5088516;28;20126;-71
2022/08/16 07:03:05;;;;;;;14.70;9.35;;;;;;;;;;5083494;28;20028;-70
2022/08/16 07:05:32;;;;;;;13.98;9.95;;;;;;;;;;5086140;28;20473;-70
2022/08/16 07:08:55;;;;;;;13.80;8.77;;;;;;;;;;5104063;27;20981;-68
2022/08/16 07:11:22;;;;;;;13.10;9.32;;;;;;;;;;5094631;28;20024;-68
2022/08/16 07:13:49;;;;;;;12.27;9.30;;;;;;;;;;5096264;28;20024;-69
2022/08/16 07:16:50;;;;;;;12.00;8.95;;;;;;;;;;5109594;27;20423;-68
2022/08/16 07:20:33;;;;;;;13.07;8.15;;;;;;;;;;5109064;27;20442;-67
2022/08/16 07:22:59;;;;;;;13.50;7.88;;;;;;;;;;5108700;28;20088;-70
2022/08/16 07:25:26;;;;;;;11.40;8.15;;;;;;;;;;5109258;28;20024;-69
2022/08/16 07:27:52;;;;;;;12.05;8.10;;;;;;;;;;5107440;28;20020;-69
2022/08/16 07:30:58;;;;;;;11.80;8.57;;;;;;;;;;5101568;27;20414;-68
2022/08/16 07:34:56;;;;;;;11.82;7.90;;;;;;;;;;5128299;27;20115;-67
2022/08/16 07:37:23;;;;;;;12.55;7.22;;;;;;;;;;5099634;28;20077;-68
2022/08/16 07:39:49;;;;;;;11.50;7.35;;;;;;;;;;5115739;28;20033;-69
2022/08/16 07:42:15;;;;;;;12.52;8.05;;;;;;;;;;5112584;28;20023;-68
2022/08/16 07:44:41;;;;;;;11.13;7.32;;;;;;;;;;5104693;28;20110;-68
2022/08/16 07:47:07;;;;;;;11.50;7.43;;;;;;;;;;5110186;28;20028;-72
2022/08/16 07:49:33;;;;;;;9.75;7.00;;;;;;;;;;5111554;28;20024;-69
2022/08/16 07:51:59;;;;;;;13.45;7.28;;;;;;;;;;5113197;28;20024;-68
2022/08/16 07:54:40;;;;;;;10.50;6.80;;;;;;;;;;5108249;27;20427;-70
2022/08/16 07:57:06;;;;;;;8.65;6.55;;;;;;;;;;5108477;28;20069;-70
2022/08/16 07:59:33;;;;;;;14.02;8.15;;;;;;;;;;5108649;28;20024;-70
2022/08/16 08:01:59;;;;;;;10.35;7.30;;;;;;;;;;5104532;28;20028;-67
2022/08/16 08:04:25;;;;;;;10.43;7.53;;;;;;;;;;5102624;28;20419;-68
2022/08/16 08:06:51;;;;;;;12.82;7.50;;;;;;;;;;5105173;28;20034;-67
2022/08/16 08:09:17;;;;;;;12.10;6.97;;;;;;;;;;5096338;28;20476;-67
2022/08/16 08:11:44;;;;;;;11.13;6.82;;;;;;;;;;5103168;28;20549;-68
2022/08/16 08:17:49;;;;;;;11.00;7.28;;;;;;;;;;5105794;27;20406;-69
2022/08/16 08:20:16;;;;;;;11.80;7.03;;;;;;;;;;5106481;28;20047;-72
2022/08/16 08:22:45;;;;;;;13.05;7.45;;;;;;;;;;5099607;28;20058;-68
2022/08/16 08:25:11;;;;;;;9.98;7.22;;;;;;;;;;5099234;28;20024;-71
2022/08/16 08:27:37;;;;;;;9.43;6.47;;;;;;;;;;5099980;28;20028;-71
2022/08/16 08:30:04;;;;;;;10.15;6.65;;;;;;;;;;5101099;28;20134;-71
2022/08/16 08:32:30;;;;;;;14.93;7.13;;;;;;;;;;5104768;28;20149;-70
2022/08/16 08:34:58;;;;;;;9.30;6.38;;;;;;;;;;5107257;28;20522;-71
2022/08/16 08:37:26;;;;;;;11.20;7.05;;;;;;;;;;5108176;28;20498;-71
2022/08/16 08:39:53;;;;;;;9.88;6.20;;;;;;;;;;5106058;28;20034;-72
2022/08/16 08:42:19;;;;;;;9.90;5.97;;;;;;;;;;5108661;28;20024;-71
2022/08/16 08:44:45;;;;;;;10.05;6.53;;;;;;;;;;5102229;28;20098;-70
2022/08/16 08:47:50;;;;;;;8.68;6.15;;;;;;;;;;5060592;28;20482;-71
2022/08/16 08:50:16;;;;;;;8.95;5.88;;;;;;;;;;5055956;28;20540;-68
2022/08/16 08:52:46;;;;;;;9.63;6.00;;;;;;;;;;5054131;28;20392;-72
2022/08/16 08:56:32;;;;;;;9.60;5.78;;;;;;;;;;5085895;27;20415;-71
2022/08/16 08:58:58;;;;;;;8.85;6.38;;;;;;;;;;5083733;28;20468;-71
2022/08/16 09:01:32;;;;;;;9.15;5.60;;;;;;;;;;5068429;28;20025;-70
2022/08/16 09:03:58;;;;;;;9.02;5.63;;;;;;;;;;5066689;28;21054;-68
2022/08/16 09:06:25;;;;;;;10.63;6.28;;;;;;;;;;5068319;28;20116;-70
2022/08/16 09:08:51;;;;;;;8.10;5.47;;;;;;;;;;5067136;28;20025;-69
2022/08/16 09:11:17;;;;;;;9.38;5.35;;;;;;;;;;5067476;28;20082;-74
2022/08/16 09:13:44;;;;;;;8.32;5.72;;;;;;;;;;5067689;28;20029;-71
2022/08/16 09:16:10;;;;;;;8.30;5.28;;;;;;;;;;5067955;28;20065;-70
2022/08/16 09:18:37;;;;;;;8.93;5.60;;;;;;;;;;5067759;28;20385;-72
2022/08/16 09:21:05;;;;;;;8.70;5.18;;;;;;;;;;5066615;28;20074;-70
2022/08/16 09:24:35;;;;;;;8.07;5.55;;;;;;;;;;5067038;28;20819;-70
2022/08/16 09:27:01;;;;;;;8.68;5.75;;;;;;;;;;5066246;28;20021;-71
2022/08/16 09:29:28;;;;;;;7.20;4.80;;;;;;;;;;5067167;28;20503;-70
2022/08/16 09:31:58;;;;;;;8.30;5.72;;;;;;;;;;5066714;28;20024;-72
2022/08/16 09:34:24;;;;;;;8.68;5.57;;;;;;;;;;5066643;28;20025;-72
2022/08/16 09:36:50;;;;;;;7.85;5.38;;;;;;;;;;5066426;28;20028;-71
2022/08/16 09:39:17;;;;;;;9.93;5.88;;;;;;;;;;5067786;28;20027;-77
2022/08/16 09:41:50;;;;;;;9.07;5.45;;;;;;;;;;5067784;28;20032;-78
2022/08/16 09:44:19;;;;;;;7.88;5.03;;;;;;;;;;5068795;28;20029;-79
2022/08/16 09:46:45;;;;;;;8.13;5.10;;;;;;;;;;5067619;28;20017;-77
2022/08/16 09:49:12;;;;;;;6.72;4.93;;;;;;;;;;5068685;28;20025;-77
2022/08/16 09:51:39;;;;;;;6.57;4.45;;;;;;;;;;5068504;28;20021;-73
2022/08/16 09:54:05;;;;;;;8.48;4.93;;;;;;;;;;5068194;28;20068;-75
2022/08/16 09:56:33;;;;;;;8.35;4.80;;;;;;;;;;5068466;28;20025;-77
2022/08/16 09:59:01;;;;;;;7.03;3.95;;;;;;;;;;5067738;28;20075;-74
2022/08/16 10:01:27;;;;;;;7.70;4.63;;;;;;;;;;5068039;28;20025;-71
2022/08/16 10:03:56;;;;;;;7.57;4.75;;;;;;;;;;5067558;28;20037;-75
2022/08/16 10:06:22;;;;;;;7.60;5.03;;;;;;;;;;5065603;28;20017;-73
2022/08/16 10:08:48;;;;;;;7.45;5.05;;;;;;;;;;5064263;28;20029;-73
2022/08/16 10:14:00;;;;;;;7.85;4.63;;;;;;;;;;5057784;28;20044;-75
2022/08/16 10:16:26;;;;;;;7.05;4.35;;;;;;;;;;5051862;28;20017;-71
2022/08/16 10:18:52;;;;;;;7.25;4.20;;;;;;;;;;5064539;28;20388;-75
2022/08/16 10:21:18;;;;;;;6.97;4.25;;;;;;;;;;5067920;28;20358;-73
2022/08/16 10:23:45;;;;;;;6.78;3.83;;;;;;;;;;5068243;28;20053;-74
2022/08/16 10:26:11;;;;;;;7.50;4.47;;;;;;;;;;5069210;28;20033;-76
2022/08/16 10:28:38;;;;;;;7.20;4.07;;;;;;;;;;5069145;28;20033;-75
2022/08/16 10:31:05;;;;;;;8.43;6.57;;;;;;;;;;5060862;28;20079;-73
2022/08/16 10:33:32;;;;;;;6.90;4.50;;;;;;;;;;5062437;28;20037;-73
2022/08/16 10:35:59;;;;;;;6.57;4.15;;;;;;;;;;5054990;28;20025;-72
2022/08/16 10:38:26;;;;;;;7.10;3.92;;;;;;;;;;5048696;28;20036;-73
2022/08/16 10:40:53;;;;;;;8.48;4.72;;;;;;;;;;5048704;28;20469;-71
2022/08/16 10:43:20;;;;;;;7.78;5.13;;;;;;;;;;5051319;28;20036;-72
2022/08/16 10:45:47;;;;;;;6.10;3.95;;;;;;;;;;5046303;28;20108;-72
2022/08/16 10:48:13;;;;;;;6.75;4.00;;;;;;;;;;5042500;28;20025;-73
2022/08/16 10:50:42;;;;;;;8.02;4.50;;;;;;;;;;5046841;28;20057;-75
2022/08/16 10:53:08;;;;;;;7.47;4.90;;;;;;;;;;5052158;28;20477;-74
2022/08/16 10:55:35;;;;;;;6.80;4.68;;;;;;;;;;5035255;28;20094;-73
2022/08/16 10:58:03;;;;;;;7.82;4.80;;;;;;;;;;5034044;28;20021;-72
2022/08/16 11:00:31;;;;;;;7.43;4.47;;;;;;;;;;5035276;28;20363;-71
2022/08/16 11:02:58;;;;;;;6.60;3.72;;;;;;;;;;5033073;28;20017;-71
2022/08/16 11:05:24;;;;;;;7.93;4.90;;;;;;;;;;5035578;28;20045;-72
2022/08/16 11:07:51;;;;;;;6.45;4.05;;;;;;;;;;5035359;28;20526;-72
2022/08/16 11:10:18;;;;;;;6.63;3.90;;;;;;;;;;5030605;28;20048;-72
2022/08/16 11:12:44;;;;;;;6.65;4.18;;;;;;;;;;5031203;28;20021;-72
2022/08/16 11:15:11;;;;;;;8.13;4.05;;;;;;;;;;5031683;28;20025;-73
2022/08/16 11:17:38;;;;;;;6.28;3.72;;;;;;;;;;5032154;28;20100;-73
2022/08/16 11:20:05;;;;;;;8.25;3.22;;;;;;;;;;5032856;28;20105;-73
2022/08/16 11:22:32;;;;;;;7.22;3.88;;;;;;;;;;5031584;28;20037;-72
2022/08/16 11:24:58;;;;;;;7.35;3.92;;;;;;;;;;5034764;28;20031;-73
2022/08/16 11:27:25;;;;;;;6.60;3.65;;;;;;;;;;5034885;28;20141;-73
2022/08/16 11:29:53;;;;;;;7.03;3.60;;;;;;;;;;5035208;28;20022;-72
2022/08/16 11:32:20;;;;;;;6.65;3.88;;;;;;;;;;5034793;28;20044;-73
2022/08/16 11:34:46;;;;;;;6.57;3.55;;;;;;;;;;5033821;28;20022;-72
2022/08/16 11:37:12;;;;;;;173.15;163.40;;;;;;;;;;5035087;28;20021;-73
2022/08/16 11:39:39;;;;;;;5.88;3.40;;;;;;;;;;5034750;28;20029;-73
2022/08/16 11:42:05;;;;;;;6.43;3.83;;;;;;;;;;5035003;28;20025;-75
2022/08/16 11:44:31;;;;;;;6.07;3.90;;;;;;;;;;5035507;28;20116;-73
2022/08/16 11:46:57;;;;;;;5.68;3.63;;;;;;;;;;5032298;28;20017;-73
2022/08/16 11:49:23;;;;;;;7.93;3.90;;;;;;;;;;5034832;28;20473;-74
2022/08/16 11:51:50;;;;;;;6.78;4.35;;;;;;;;;;5034943;28;20462;-73
2022/08/16 11:54:16;;;;;;;6.85;3.80;;;;;;;;;;5034725;28;20488;-72
2022/08/16 11:56:43;;;;;;;5.85;3.63;;;;;;;;;;5034833;28;20033;-73
2022/08/16 11:59:09;;;;;;;7.63;3.53;;;;;;;;;;5034733;28;20039;-73
2022/08/16 12:01:36;;;;;;;6.63;3.90;;;;;;;;;;5034195;28;20034;-71
2022/08/16 12:04:02;;;;;;;6.35;3.15;;;;;;;;;;5034430;28;20071;-71
2022/08/16 12:06:28;;;;;;;8.02;3.17;;;;;;;;;;5034580;28;20097;-71
2022/08/16 12:08:56;;;;;;;5.65;3.42;;;;;;;;;;5034090;28;20033;-71
2022/08/16 12:11:23;;;;;;;7.05;3.90;;;;;;;;;;5034458;28;20045;-71
2022/08/16 12:13:52;;;;;;;6.03;3.40;;;;;;;;;;5034333;28;20026;-71
2022/08/16 12:16:18;;;;;;;5.80;3.35;;;;;;;;;;5034009;28;20119;-70
2022/08/16 12:18:45;;;;;;;6.40;3.28;;;;;;;;;;5034221;28;20030;-71
2022/08/16 12:21:11;;;;;;;5.53;2.97;;;;;;;;;;5034208;28;20408;-71
2022/08/16 12:23:38;;;;;;;5.03;3.00;;;;;;;;;;5033581;28;20049;-71
2022/08/16 12:26:04;;;;;;;8.15;3.95;;;;;;;;;;5034116;28;20104;-71
2022/08/16 12:28:31;;;;;;;7.97;3.25;;;;;;;;;;5032380;28;20022;-71
2022/08/16 12:30:58;;;;;;;7.07;3.60;;;;;;;;;;5034303;28;20378;-72
2022/08/16 12:33:24;;;;;;;5.75;3.28;;;;;;;;;;5034041;28;20025;-72
2022/08/16 12:35:50;;;;;;;5.35;3.42;;;;;;;;;;5033646;28;20435;-72
2022/08/16 12:38:17;;;;;;;5.75;2.63;;;;;;;;;;5032705;28;20029;-72
2022/08/16 12:40:45;;;;;;;5.80;3.08;;;;;;;;;;5034003;28;20115;-72
2022/08/16 12:43:12;;;;;;;7.15;3.50;;;;;;;;;;5033390;28;20079;-73
2022/08/16 12:45:40;;;;;;;7.40;3.30;;;;;;;;;;5032610;28;20421;-72
2022/08/16 12:50:53;;;;;;;5.72;3.13;;;;;;;;;;5033804;28;20525;-73
2022/08/16 12:53:19;;;;;;;5.90;3.22;;;;;;;;;;5032471;28;20363;-73
2022/08/16 12:55:46;;;;;;;4.82;2.85;;;;;;;;;;5033684;28;20394;-73
2022/08/16 12:58:12;;;;;;;5.25;3.20;;;;;;;;;;5033010;28;20022;-73
2022/08/16 13:00:39;;;;;;;5.82;2.92;;;;;;;;;;5033760;28;20052;-73
2022/08/16 13:03:08;;;;;;;7.68;3.40;;;;;;;;;;5033926;28;20363;-73
2022/08/16 13:05:40;;;;;;;6.55;3.60;;;;;;;;;;5033186;28;20018;-73
2022/08/16 13:08:06;;;;;;;;;;;;;;;;;;5033817;28;20456;-72
2022/08/16 13:10:32;;;;;;;6.00;2.97;;;;;;;;;;5033701;28;19905;-73
2022/08/16 13:12:58;;;;;;;5.68;2.75;;;;;;;;;;5032991;28;20500;-72
2022/08/16 13:15:27;;;;;;;5.70;2.85;;;;;;;;;;5033445;28;20033;-72
2022/08/16 13:17:53;;;;;;;6.05;2.60;;;;;;;;;;5033239;28;20401;-72
2022/08/16 13:20:21;;;;;;;5.53;2.78;;;;;;;;;;5033686;28;20022;-72
2022/08/16 13:22:58;;;;;;;5.03;2.67;;;;;;;;;;5033305;28;20042;-71
2022/08/16 13:25:25;;;;;;;5.32;3.20;;;;;;;;;;5033138;28;20030;-72
2022/08/16 13:27:51;;;;;;;7.38;4.00;;;;;;;;;;5033311;28;20032;-72
2022/08/16 13:30:18;;;;;;;5.00;3.03;;;;;;;;;;5033753;28;20028;-72
2022/08/16 13:32:44;;;;;;;4.05;2.75;;;;;;;;;;5032965;28;20025;-72
2022/08/16 13:35:10;;;;;;;6.43;2.85;;;;;;;;;;5033253;28;20029;-72
2022/08/16 13:37:36;;;;;;;5.20;2.80;;;;;;;;;;5031867;28;20386;-72
2022/08/16 13:40:03;;;;;;;8.00;3.90;;;;;;;;;;5032742;28;20478;-72
2022/08/16 13:42:30;;;;;;;4.97;3.05;;;;;;;;;;5033376;28;20041;-72
2022/08/16 13:44:57;;;;;;;5.32;2.80;;;;;;;;;;5033131;28;20072;-72
2022/08/16 13:47:23;;;;;;;5.45;3.17;;;;;;;;;;5032927;28;20425;-72
2022/08/16 13:49:50;;;;;;;6.28;3.17;;;;;;;;;;5031805;28;20583;-71
2022/08/16 13:52:17;;;;;;;6.75;2.90;;;;;;;;;;5033059;28;20025;-72
2022/08/16 13:54:43;;;;;;;6.13;3.22;;;;;;;;;;5032640;28;20021;-72
2022/08/16 13:57:09;;;;;;;4.57;2.47;;;;;;;;;;5033046;28;20028;-72
2022/08/16 13:59:36;;;;;;;5.60;3.17;;;;;;;;;;5033053;28;20104;-71
2022/08/16 14:02:04;;;;;;;6.55;2.92;;;;;;;;;;5042507;28;20505;-75
2022/08/16 14:04:34;;;;;;;6.47;3.13;;;;;;;;;;5052543;28;20393;-73
2022/08/16 14:07:02;;;;;;;4.72;2.88;;;;;;;;;;5043863;28;20036;-70
2022/08/16 14:09:29;;;;;;;6.05;2.70;;;;;;;;;;5047583;28;20502;-72
2022/08/16 14:11:59;;;;;;;5.35;3.00;;;;;;;;;;5054573;28;20025;-74
2022/08/16 14:14:25;;;;;;;6.75;3.15;;;;;;;;;;5055398;28;20033;-73
2022/08/16 14:16:52;;;;;;;6.68;2.70;;;;;;;;;;5054780;28;20028;-74
2022/08/16 14:19:18;;;;;;;4.63;2.47;;;;;;;;;;5056288;28;20025;-73
2022/08/16 14:21:45;;;;;;;4.25;2.60;;;;;;;;;;5055992;28;20060;-72
2022/08/16 14:24:13;;;;;;;4.78;2.58;;;;;;;;;;5056197;28;20056;-73
2022/08/16 14:26:42;;;;;;;5.35;2.33;;;;;;;;;;5052898;28;20032;-72
2022/08/16 14:29:09;;;;;;;3.80;2.28;;;;;;;;;;5036899;28;20060;-76
2022/08/16 14:31:35;;;;;;;3.78;2.28;;;;;;;;;;5051757;28;20032;-74
2022/08/16 14:34:03;;;;;;;6.22;2.38;;;;;;;;;;5052095;28;20017;-74
2022/08/16 14:36:36;;;;;;;4.38;2.67;;;;;;;;;;5053201;28;20021;-73
2022/08/16 14:39:04;;;;;;;5.65;2.47;;;;;;;;;;5054473;28;20485;-73
2022/08/16 14:41:30;;;;;;;3.95;2.00;;;;;;;;;;5055824;28;20036;-74
2022/08/16 14:43:56;;;;;;;6.25;2.38;;;;;;;;;;5055404;28;20037;-72
2022/08/16 14:46:23;;;;;;;4.70;2.40;;;;;;;;;;5055882;28;20541;-74
2022/08/16 14:48:49;;;;;;;3.85;2.08;;;;;;;;;;5055808;28;20082;-72
2022/08/16 14:51:15;;;;;;;5.35;3.05;;;;;;;;;;5055410;28;20148;-73
2022/08/16 14:53:41;;;;;;;6.55;3.15;;;;;;;;;;5055501;28;20031;-73
2022/08/16 14:56:08;;;;;;;6.15;3.05;;;;;;;;;;5052286;28;20075;-73
2022/08/16 14:58:34;;;;;;;6.80;3.58;;;;;;;;;;5051496;28;20493;-73
2022/08/16 15:01:00;;;;;;;7.53;4.20;;;;;;;;;;5053844;28;20040;-71
2022/08/16 15:03:27;;;;;;;7.97;4.30;;;;;;;;;;5054911;28;20040;-75
2022/08/16 15:05:53;;;;;;;8.73;3.78;;;;;;;;;;5053693;28;20024;-74
2022/08/16 15:08:20;;;;;;;7.22;3.65;;;;;;;;;;5052894;28;20100;-74
2022/08/16 15:10:46;;;;;;;7.32;4.20;;;;;;;;;;5053111;28;20029;-74
2022/08/16 15:13:12;;;;;;;7.93;4.45;;;;;;;;;;5051197;28;20075;-74
2022/08/16 15:15:39;;;;;;;7.40;3.50;;;;;;;;;;5054304;28;20061;-74
2022/08/16 15:18:06;;;;;;;9.90;4.25;;;;;;;;;;5053404;28;20548;-73
2022/08/16 15:20:34;;;;;;;9.05;4.30;;;;;;;;;;5053785;28;20029;-73
2022/08/16 15:23:02;;;;;;;12.40;4.65;;;;;;;;;;5053266;28;20053;-73
2022/08/16 15:25:30;;;;;;;5.53;3.08;;;;;;;;;;5054399;28;20475;-73
2022/08/16 15:27:56;;;;;;;6.75;3.28;;;;;;;;;;5054618;28;20036;-74
2022/08/16 15:30:24;;;;;;;5.93;2.97;;;;;;;;;;5054829;28;20054;-74
2022/08/16 15:32:50;;;;;;;12.48;3.45;;;;;;;;;;5054757;28;20039;-74
2022/08/16 15:35:17;;;;;;;6.13;3.58;;;;;;;;;;5053895;28;20036;-73
2022/08/16 15:37:43;;;;;;;8.18;4.25;;;;;;;;;;5055157;28;20096;-73
2022/08/16 15:40:11;;;;;;;5.93;3.53;;;;;;;;;;5054633;28;20086;-74
2022/08/16 15:42:38;;;;;;;6.38;3.40;;;;;;;;;;5054977;28;20024;-74
2022/08/16 15:45:05;;;;;;;6.63;4.22;;;;;;;;;;5055202;28;20083;-74
2022/08/16 15:47:33;;;;;;;6.82;3.97;;;;;;;;;;5054517;28;20021;-74
2022/08/16 15:49:59;;;;;;;9.27;3.40;;;;;;;;;;5054960;28;20025;-74
2022/08/16 15:52:28;;;;;;;5.93;3.63;;;;;;;;;;5054667;28;20079;-73
2022/08/16 15:54:54;;;;;;;5.15;3.03;;;;;;;;;;5054750;28;20021;-75
2022/08/16 15:57:24;;;;;;;11.43;3.58;;;;;;;;;;5054673;28;20025;-75
2022/08/16 15:59:51;;;;;;;6.43;3.13;;;;;;;;;;5054434;28;20075;-74
2022/08/16 16:02:18;;;;;;;8.55;3.67;;;;;;;;;;5053346;28;20021;-74
2022/08/16 16:04:44;;;;;;;6.43;3.38;;;;;;;;;;5054631;28;20033;-74
2022/08/16 16:07:10;;;;;;;6.85;2.40;;;;;;;;;;5054060;28;20096;-74
2022/08/16 16:09:36;;;;;;;5.50;2.65;;;;;;;;;;5054359;28;20546;-73
2022/08/16 16:12:03;;;;;;;6.47;3.10;;;;;;;;;;5054439;28;20033;-73
2022/08/16 16:14:29;;;;;;;5.40;2.72;;;;;;;;;;5053913;28;20017;-73
2022/08/16 16:16:59;;;;;;;5.18;2.33;;;;;;;;;;5054191;28;20032;-73
2022/08/16 16:19:26;;;;;;;6.13;2.45;;;;;;;;;;5054287;28;20021;-73
2022/08/16 16:21:52;;;;;;;5.47;2.38;;;;;;;;;;5053789;28;20545;-74
2022/08/16 16:24:18;;;;;;;3.58;2.13;;;;;;;;;;5053923;28;20498;-73
2022/08/16 16:26:44;;;;;;;8.07;2.40;;;;;;;;;;5054007;28;20374;-73
2022/08/16 16:29:11;;;;;;;4.65;1.65;;;;;;;;;;5053593;28;20029;-73
2022/08/16 16:32:21;;;;;;;6.00;1.90;;;;;;;;;;5111390;27;20404;-74
2022/08/16 16:34:47;;;;;;;4.00;1.48;;;;;;;;;;5110952;28;20047;-74
2022/08/16 16:37:14;;;;;;;7.15;1.92;;;;;;;;;;5111185;28;20027;-74